Time;durP1;ratioP1;P1;durP2;ratioP2;P2;SDS_P1;SDS_P2;PMS_P1;PMS_P2;Temp;Humidity;BMP_temperature;BMP_pressure;BME280_temperature;BME280_humidity;BME280_pressure;Samples;Min_cycle;Max_cycle;Signal;HPM_P1;HPM_P2
2021/04/14 00:01:10;;;;;;;6.15;2.88;;;;;;;;;;5029684;28;20037;-62
2021/04/14 00:03:36;;;;;;;7.63;2.67;;;;;;;;;;5031026;28;20053;-56
2021/04/14 00:06:03;;;;;;;6.25;2.45;;;;;;;;;;5026288;28;20050;-50
2021/04/14 00:08:30;;;;;;;6.45;2.60;;;;;;;;;;5031045;28;20175;-56
2021/04/14 00:10:56;;;;;;;10.25;3.58;;;;;;;;;;5025076;28;20045;-55
2021/04/14 00:13:24;;;;;;;8.18;3.85;;;;;;;;;;5048665;28;20068;-56
2021/04/14 00:15:52;;;;;;;10.23;4.17;;;;;;;;;;5016740;28;20041;-54
2021/04/14 00:18:19;;;;;;;10.13;3.45;;;;;;;;;;5034345;28;20290;-54
2021/04/14 00:20:47;;;;;;;7.00;2.92;;;;;;;;;;5025962;28;20030;-53
2021/04/14 00:23:13;;;;;;;8.82;2.83;;;;;;;;;;5030508;28;20034;-54
2021/04/14 00:25:43;;;;;;;8.25;2.38;;;;;;;;;;5028521;28;20037;-52
2021/04/14 00:28:09;;;;;;;8.98;2.30;;;;;;;;;;5030706;28;20063;-59
2021/04/14 00:30:53;;;;;;;7.65;2.25;;;;;;;;;;5029969;28;20038;-53
2021/04/14 00:33:20;;;;;;;7.97;2.80;;;;;;;;;;4965359;28;20049;-58
2021/04/14 00:35:46;;;;;;;4.75;2.40;;;;;;;;;;5021822;28;20033;-58
2021/04/14 00:38:13;;;;;;;4.72;2.38;;;;;;;;;;5030107;28;20056;-53
2021/04/14 00:40:41;;;;;;;5.95;2.58;;;;;;;;;;5026030;28;20067;-55
2021/04/14 00:43:11;;;;;;;8.07;3.00;;;;;;;;;;5025355;28;20049;-62
2021/04/14 00:45:37;;;;;;;7.15;2.55;;;;;;;;;;5031449;28;20049;-57
2021/04/14 00:48:03;;;;;;;7.35;3.00;;;;;;;;;;5029945;28;20111;-53
2021/04/14 00:50:30;;;;;;;7.28;2.63;;;;;;;;;;5027657;28;20052;-54
2021/04/14 00:52:56;;;;;;;7.72;2.60;;;;;;;;;;5026326;28;20068;-55
2021/04/14 00:55:24;;;;;;;7.80;2.70;;;;;;;;;;5031145;28;20038;-53
2021/04/14 00:57:50;;;;;;;6.80;2.83;;;;;;;;;;5025750;28;20071;-55
2021/04/14 01:00:18;;;;;;;11.15;2.90;;;;;;;;;;5028226;28;20046;-57
2021/04/14 01:02:44;;;;;;;6.22;2.80;;;;;;;;;;5024504;28;20068;-52
2021/04/14 01:05:11;;;;;;;11.77;2.50;;;;;;;;;;5026620;28;20045;-60
2021/04/14 01:07:38;;;;;;;6.72;2.25;;;;;;;;;;5023180;28;20041;-50
2021/04/14 01:10:05;;;;;;;7.30;2.92;;;;;;;;;;5027580;28;20053;-54
2021/04/14 01:12:31;;;;;;;6.35;2.58;;;;;;;;;;5024737;28;20038;-52
2021/04/14 01:14:57;;;;;;;6.72;2.83;;;;;;;;;;5023781;28;20341;-57
2021/04/14 01:17:23;;;;;;;8.45;2.45;;;;;;;;;;5028863;28;20108;-56
2021/04/14 01:19:50;;;;;;;10.43;3.00;;;;;;;;;;5028888;28;20085;-57
2021/04/14 01:22:17;;;;;;;9.07;3.20;;;;;;;;;;5029611;28;20052;-50
2021/04/14 01:24:45;;;;;;;11.13;3.08;;;;;;;;;;5030630;28;20041;-57
2021/04/14 01:27:11;;;;;;;6.27;2.30;;;;;;;;;;5029865;28;20074;-53
2021/04/14 01:29:37;;;;;;;6.38;2.40;;;;;;;;;;5049350;28;20038;-52
2021/04/14 01:32:03;;;;;;;8.50;2.85;;;;;;;;;;5029191;28;20045;-53
2021/04/14 01:34:29;;;;;;;7.35;2.65;;;;;;;;;;5028647;28;20052;-56
2021/04/14 01:36:55;;;;;;;5.88;2.47;;;;;;;;;;5029117;28;20053;-57
2021/04/14 01:39:22;;;;;;;5.65;2.30;;;;;;;;;;5026543;28;20133;-53
2021/04/14 01:41:48;;;;;;;8.35;2.60;;;;;;;;;;5027625;28;20037;-59
2021/04/14 01:44:14;;;;;;;9.10;2.53;;;;;;;;;;5025519;28;20052;-53
2021/04/14 01:46:42;;;;;;;7.30;2.53;;;;;;;;;;5027591;28;20166;-57
2021/04/14 01:49:08;;;;;;;5.30;2.28;;;;;;;;;;5023239;28;20033;-54
2021/04/14 01:51:35;;;;;;;7.28;2.70;;;;;;;;;;5028588;28;20030;-52
2021/04/14 01:54:01;;;;;;;6.78;2.47;;;;;;;;;;5028976;28;20057;-55
2021/04/14 01:56:28;;;;;;;5.65;2.45;;;;;;;;;;5026250;28;20033;-51
2021/04/14 01:58:54;;;;;;;8.88;2.40;;;;;;;;;;5029825;28;20065;-57
2021/04/14 02:01:20;;;;;;;6.40;2.70;;;;;;;;;;5021158;28;20038;-53
2021/04/14 02:03:47;;;;;;;9.68;2.83;;;;;;;;;;5020461;28;20037;-56
2021/04/14 02:06:17;;;;;;;5.70;2.38;;;;;;;;;;5017691;28;20045;-54
2021/04/14 02:08:43;;;;;;;5.63;2.53;;;;;;;;;;5019973;28;20034;-52
2021/04/14 02:11:11;;;;;;;9.40;2.70;;;;;;;;;;5016934;28;20046;-52
2021/04/14 02:13:39;;;;;;;6.93;2.97;;;;;;;;;;5019712;28;20046;-54
2021/04/14 02:16:06;;;;;;;6.80;2.57;;;;;;;;;;5026293;28;20664;-58
2021/04/14 02:18:32;;;;;;;6.57;2.60;;;;;;;;;;5043477;28;20363;-51
2021/04/14 02:20:59;;;;;;;7.38;2.58;;;;;;;;;;5037548;28;20057;-55
2021/04/14 02:23:26;;;;;;;6.20;2.60;;;;;;;;;;5042428;28;20026;-56
2021/04/14 02:25:53;;;;;;;7.55;2.65;;;;;;;;;;5034695;28;20127;-55
2021/04/14 02:28:19;;;;;;;5.30;2.47;;;;;;;;;;5023072;28;20041;-54
2021/04/14 02:30:47;;;;;;;6.70;2.58;;;;;;;;;;5020907;28;20055;-53
2021/04/14 02:33:12;;;;;;;7.75;3.10;;;;;;;;;;5025138;28;20052;-54
2021/04/14 02:35:39;;;;;;;7.72;2.80;;;;;;;;;;5043478;28;20034;-54
2021/04/14 02:38:05;;;;;;;7.97;2.75;;;;;;;;;;5020406;28;20098;-58
2021/04/14 02:40:34;;;;;;;5.95;2.60;;;;;;;;;;5023294;28;20038;-57
2021/04/14 02:43:00;;;;;;;6.40;3.35;;;;;;;;;;5019745;28;20119;-55
2021/04/14 02:45:28;;;;;;;9.80;2.92;;;;;;;;;;5021988;28;20069;-59
2021/04/14 02:47:54;;;;;;;11.30;2.93;;;;;;;;;;5022269;28;20125;-54
2021/04/14 02:50:21;;;;;;;7.60;2.80;;;;;;;;;;5025817;28;20022;-58
2021/04/14 02:52:47;;;;;;;6.43;2.80;;;;;;;;;;5035558;28;20053;-61
2021/04/14 02:55:18;;;;;;;7.53;2.83;;;;;;;;;;5043494;28;20033;-49
2021/04/14 02:57:44;;;;;;;9.38;2.75;;;;;;;;;;5028976;28;20034;-52
2021/04/14 03:00:11;;;;;;;7.82;2.72;;;;;;;;;;5022442;28;20036;-55
2021/04/14 03:02:37;;;;;;;9.35;2.88;;;;;;;;;;5025564;28;20029;-55
2021/04/14 03:05:04;;;;;;;8.27;3.10;;;;;;;;;;5042513;28;20048;-54
2021/04/14 03:07:30;;;;;;;6.22;2.78;;;;;;;;;;5035180;28;20034;-56
2021/04/14 03:09:56;;;;;;;9.07;3.05;;;;;;;;;;5023377;28;20045;-51
2021/04/14 03:12:24;;;;;;;8.27;2.92;;;;;;;;;;5022869;28;20044;-57
2021/04/14 03:14:50;;;;;;;7.35;2.60;;;;;;;;;;5022391;28;20037;-59
2021/04/14 03:17:16;;;;;;;6.47;2.78;;;;;;;;;;5022871;28;20045;-55
2021/04/14 03:19:42;;;;;;;6.22;2.83;;;;;;;;;;5037904;28;20029;-55
2021/04/14 03:22:09;;;;;;;7.63;3.28;;;;;;;;;;5041417;28;20060;-54
2021/04/14 03:24:35;;;;;;;8.48;3.22;;;;;;;;;;5023512;28;20034;-57
2021/04/14 03:27:01;;;;;;;8.50;3.35;;;;;;;;;;5021917;28;20089;-57
2021/04/14 03:29:28;;;;;;;8.98;3.42;;;;;;;;;;5017924;28;20045;-58
2021/04/14 03:31:54;;;;;;;9.98;3.25;;;;;;;;;;5021850;28;20038;-55
2021/04/14 03:34:20;;;;;;;8.00;3.38;;;;;;;;;;5021051;28;20057;-53
2021/04/14 03:36:46;;;;;;;6.22;2.75;;;;;;;;;;5022240;28;20030;-56
2021/04/14 03:39:13;;;;;;;7.97;3.30;;;;;;;;;;5018157;28;20052;-54
2021/04/14 03:41:39;;;;;;;6.88;3.20;;;;;;;;;;5031988;28;20041;-57
2021/04/14 03:44:05;;;;;;;8.52;3.30;;;;;;;;;;5038210;28;20053;-54
2021/04/14 03:46:31;;;;;;;8.63;3.40;;;;;;;;;;5025752;28;20071;-55
2021/04/14 03:48:57;;;;;;;7.32;3.50;;;;;;;;;;5017787;28;20085;-52
2021/04/14 03:51:25;;;;;;;7.68;3.42;;;;;;;;;;5023697;28;20049;-57
2021/04/14 03:53:52;;;;;;;7.75;3.53;;;;;;;;;;5021379;28;20268;-60
2021/04/14 03:56:18;;;;;;;9.13;4.13;;;;;;;;;;5035200;28;20098;-58
2021/04/14 03:58:46;;;;;;;7.97;3.80;;;;;;;;;;5042213;28;20056;-57
2021/04/14 04:01:13;;;;;;;8.13;3.63;;;;;;;;;;5002649;28;20167;-56
2021/04/14 04:03:40;;;;;;;9.00;3.60;;;;;;;;;;5022181;28;20042;-62
2021/04/14 04:06:06;;;;;;;8.65;3.60;;;;;;;;;;5019041;28;20049;-55
2021/04/14 04:08:32;;;;;;;12.13;3.83;;;;;;;;;;5022128;28;20064;-53
2021/04/14 04:10:58;;;;;;;7.15;3.38;;;;;;;;;;5031484;28;20037;-59
2021/04/14 04:13:26;;;;;;;15.00;3.67;;;;;;;;;;5041858;28;20075;-60
2021/04/14 04:15:52;;;;;;;8.40;3.72;;;;;;;;;;5029291;28;20034;-61
2021/04/14 04:18:18;;;;;;;10.10;3.70;;;;;;;;;;5024909;28;20045;-55
2021/04/14 04:20:46;;;;;;;9.02;3.60;;;;;;;;;;5028452;28;20033;-52
2021/04/14 04:23:12;;;;;;;7.78;3.58;;;;;;;;;;5039999;28;20041;-57
2021/04/14 04:25:39;;;;;;;9.23;3.85;;;;;;;;;;5032515;28;20045;-51
2021/04/14 04:28:05;;;;;;;7.57;3.63;;;;;;;;;;5022651;28;20109;-56
2021/04/14 04:30:35;;;;;;;10.00;3.97;;;;;;;;;;5021356;28;20045;-56
2021/04/14 04:33:02;;;;;;;10.32;3.83;;;;;;;;;;5037242;28;20051;-53
2021/04/14 04:35:28;;;;;;;7.20;3.28;;;;;;;;;;5019512;28;20046;-58
2021/04/14 04:37:55;;;;;;;7.45;3.47;;;;;;;;;;5039286;28;20045;-56
2021/04/14 04:40:21;;;;;;;10.80;4.60;;;;;;;;;;5039431;28;20049;-56
2021/04/14 04:42:48;;;;;;;7.95;4.00;;;;;;;;;;5019938;28;20110;-55
2021/04/14 04:45:15;;;;;;;9.52;4.15;;;;;;;;;;5039674;28;20041;-57
2021/04/14 04:47:42;;;;;;;8.68;3.92;;;;;;;;;;5021854;28;20041;-57
2021/04/14 04:50:09;;;;;;;7.25;3.83;;;;;;;;;;5019627;28;20110;-56
2021/04/14 04:52:35;;;;;;;8.20;3.55;;;;;;;;;;5017051;28;20116;-58
2021/04/14 04:55:01;;;;;;;7.97;3.67;;;;;;;;;;5036319;28;20046;-51
2021/04/14 04:57:27;;;;;;;9.80;4.07;;;;;;;;;;5042706;28;20807;-56
2021/04/14 04:59:53;;;;;;;8.60;4.25;;;;;;;;;;5039411;28;20108;-58
2021/04/14 05:02:19;;;;;;;9.93;3.55;;;;;;;;;;5030812;28;20041;-54
2021/04/14 05:04:46;;;;;;;6.78;3.35;;;;;;;;;;5019940;28;20468;-53
2021/04/14 05:07:12;;;;;;;8.00;3.47;;;;;;;;;;5017799;28;20061;-56
2021/04/14 05:09:38;;;;;;;8.20;3.65;;;;;;;;;;5020826;28;20059;-61
2021/04/14 05:12:05;;;;;;;8.85;4.20;;;;;;;;;;5019712;28;20033;-56
2021/04/14 05:14:31;;;;;;;8.82;4.00;;;;;;;;;;5034859;28;20034;-55
2021/04/14 05:16:57;;;;;;;8.50;3.75;;;;;;;;;;5029784;28;20068;-53
2021/04/14 05:19:22;;;;;;;8.20;3.72;;;;;;;;;;5026721;28;20075;-54
2021/04/14 05:21:51;;;;;;;7.38;3.78;;;;;;;;;;5031148;28;20029;-56
2021/04/14 05:24:17;;;;;;;10.93;4.15;;;;;;;;;;5026173;28;20082;-59
2021/04/14 05:26:45;;;;;;;8.90;4.07;;;;;;;;;;5027053;28;20057;-60
2021/04/14 05:29:11;;;;;;;11.05;3.50;;;;;;;;;;5025571;28;20049;-57
2021/04/14 05:31:40;;;;;;;7.72;3.55;;;;;;;;;;5031771;28;20042;-60
2021/04/14 05:34:06;;;;;;;11.48;4.00;;;;;;;;;;5029053;28;20100;-57
2021/04/14 05:36:32;;;;;;;12.68;4.45;;;;;;;;;;5015543;28;20045;-59
2021/04/14 05:38:59;;;;;;;10.00;4.15;;;;;;;;;;5028094;28;20080;-55
2021/04/14 05:41:26;;;;;;;10.15;3.72;;;;;;;;;;5032077;28;20110;-58
2021/04/14 05:43:52;;;;;;;8.38;3.50;;;;;;;;;;5031025;28;20037;-51
2021/04/14 05:46:20;;;;;;;11.20;4.40;;;;;;;;;;5028351;28;20064;-59
2021/04/14 05:48:46;;;;;;;10.75;5.22;;;;;;;;;;5028797;28;20033;-58
2021/04/14 05:51:14;;;;;;;14.98;4.40;;;;;;;;;;5033739;28;20033;-57
2021/04/14 05:53:40;;;;;;;12.95;4.57;;;;;;;;;;5032332;28;20069;-57
2021/04/14 05:56:08;;;;;;;10.90;5.18;;;;;;;;;;5034121;28;20046;-51
2021/04/14 05:58:35;;;;;;;11.18;4.85;;;;;;;;;;5031755;28;20037;-53
2021/04/14 06:01:01;;;;;;;14.23;4.55;;;;;;;;;;5028924;28;20115;-60
2021/04/14 06:03:28;;;;;;;11.15;4.95;;;;;;;;;;5034649;28;20041;-56
2021/04/14 06:05:54;;;;;;;9.20;4.40;;;;;;;;;;5028089;28;20053;-57
2021/04/14 06:08:20;;;;;;;12.80;4.80;;;;;;;;;;5045166;28;20049;-58
2021/04/14 06:10:46;;;;;;;13.52;5.10;;;;;;;;;;5027052;28;20054;-58
2021/04/14 06:13:14;;;;;;;12.02;5.10;;;;;;;;;;5024225;28;20050;-53
2021/04/14 06:15:40;;;;;;;9.90;4.45;;;;;;;;;;5020937;28;20049;-58
2021/04/14 06:18:07;;;;;;;11.52;5.07;;;;;;;;;;5022700;28;20034;-59
2021/04/14 06:20:34;;;;;;;13.80;5.10;;;;;;;;;;5028980;28;20061;-58
2021/04/14 06:23:02;;;;;;;14.23;4.93;;;;;;;;;;5042876;28;20053;-52
2021/04/14 06:25:31;;;;;;;11.30;4.85;;;;;;;;;;5033884;28;20076;-61
2021/04/14 06:28:00;;;;;;;11.70;4.93;;;;;;;;;;5023173;28;20062;-54
2021/04/14 06:30:28;;;;;;;12.93;5.35;;;;;;;;;;5018982;28;20041;-57
2021/04/14 06:32:54;;;;;;;9.15;4.47;;;;;;;;;;5023589;28;20345;-55
2021/04/14 06:35:21;;;;;;;17.13;6.22;;;;;;;;;;5037711;28;20029;-58
2021/04/14 06:37:47;;;;;;;12.93;5.50;;;;;;;;;;5024274;28;20029;-59
2021/04/14 06:40:33;;;;;;;10.13;5.38;;;;;;;;;;5038227;28;20076;-58
2021/04/14 06:43:03;;;;;;;10.70;4.43;;;;;;;;;;5021168;28;20082;-56
2021/04/14 06:45:34;;;;;;;10.68;4.80;;;;;;;;;;5031452;28;20064;-59
2021/04/14 06:48:07;;;;;;;17.88;5.45;;;;;;;;;;5022900;28;20505;-54
2021/04/14 06:50:37;;;;;;;15.10;5.63;;;;;;;;;;5022378;28;20041;-51
2021/04/14 06:53:08;;;;;;;11.40;5.55;;;;;;;;;;5019688;28;20042;-58
2021/04/14 06:55:37;;;;;;;15.98;6.15;;;;;;;;;;5022832;28;20045;-53
2021/04/14 06:58:05;;;;;;;13.00;6.22;;;;;;;;;;5018395;28;20057;-55
2021/04/14 07:00:35;;;;;;;11.38;5.18;;;;;;;;;;5020746;28;20041;-55
2021/04/14 07:03:06;;;;;;;10.13;4.75;;;;;;;;;;5030685;28;20071;-56
2021/04/14 07:05:34;;;;;;;12.93;4.90;;;;;;;;;;5021629;28;20038;-60
2021/04/14 07:08:01;;;;;;;14.05;4.85;;;;;;;;;;5035947;28;20045;-59
2021/04/14 07:10:30;;;;;;;12.82;4.55;;;;;;;;;;5024073;28;20041;-57
2021/04/14 07:13:00;;;;;;;11.48;4.80;;;;;;;;;;5031798;28;20062;-55
2021/04/14 07:15:26;;;;;;;10.70;4.75;;;;;;;;;;5041817;28;20043;-56
2021/04/14 07:17:57;;;;;;;12.52;4.72;;;;;;;;;;5037555;28;20045;-57
2021/04/14 07:20:26;;;;;;;14.20;5.03;;;;;;;;;;5041901;28;20045;-58
2021/04/14 07:22:58;;;;;;;13.65;5.47;;;;;;;;;;5031664;28;20061;-54
2021/04/14 07:25:26;;;;;;;11.48;4.70;;;;;;;;;;5022368;28;20115;-51
2021/04/14 07:27:58;;;;;;;11.02;4.47;;;;;;;;;;5022979;28;20048;-57
2021/04/14 07:30:26;;;;;;;14.85;5.13;;;;;;;;;;5040880;28;20038;-59
2021/04/14 07:32:59;;;;;;;10.37;4.70;;;;;;;;;;5037112;28;20053;-57
2021/04/14 07:35:26;;;;;;;13.55;4.82;;;;;;;;;;5042165;28;20282;-55
2021/04/14 07:37:57;;;;;;;11.32;5.03;;;;;;;;;;5034680;28;20127;-53
2021/04/14 07:40:26;;;;;;;13.85;5.10;;;;;;;;;;5021733;28;20495;-54
2021/04/14 07:42:55;;;;;;;15.10;4.80;;;;;;;;;;5018103;28;20060;-56
2021/04/14 07:45:26;;;;;;;18.83;5.18;;;;;;;;;;5021944;28;20052;-54
2021/04/14 07:47:53;;;;;;;11.02;5.00;;;;;;;;;;5021204;28;20122;-52
2021/04/14 07:50:22;;;;;;;14.70;5.15;;;;;;;;;;5019186;28;20042;-57
2021/04/14 07:52:48;;;;;;;12.55;4.88;;;;;;;;;;5021723;28;20042;-56
2021/04/14 07:55:22;;;;;;;10.48;4.65;;;;;;;;;;5034508;28;20130;-53
2021/04/14 07:57:48;;;;;;;9.68;4.28;;;;;;;;;;5041758;28;20524;-52
2021/04/14 08:00:18;;;;;;;11.57;5.07;;;;;;;;;;5022318;28;20049;-55
2021/04/14 08:02:44;;;;;;;19.30;4.82;;;;;;;;;;5021733;28;20042;-52
2021/04/14 08:05:13;;;;;;;14.35;5.32;;;;;;;;;;5019109;28;20037;-57
2021/04/14 08:07:40;;;;;;;15.60;6.38;;;;;;;;;;5020656;28;20052;-52
2021/04/14 08:10:09;;;;;;;18.88;6.93;;;;;;;;;;5026835;28;20046;-53
2021/04/14 08:12:35;;;;;;;15.48;7.07;;;;;;;;;;5012770;28;20038;-56
2021/04/14 08:15:09;;;;;;;17.65;7.75;;;;;;;;;;5019381;28;20037;-57
2021/04/14 08:17:35;;;;;;;16.63;6.03;;;;;;;;;;5021192;28;20038;-55
2021/04/14 08:20:04;;;;;;;16.40;5.53;;;;;;;;;;5025750;28;20052;-51
2021/04/14 08:22:30;;;;;;;13.40;5.80;;;;;;;;;;5043973;28;20029;-54
2021/04/14 08:25:00;;;;;;;14.60;5.80;;;;;;;;;;5032780;28;20025;-55
2021/04/14 08:27:34;;;;;;;15.55;6.40;;;;;;;;;;5021964;28;20034;-54
2021/04/14 08:30:01;;;;;;;12.50;5.50;;;;;;;;;;5019366;28;20719;-51
2021/04/14 08:32:28;;;;;;;15.73;7.18;;;;;;;;;;5039491;28;20025;-53
2021/04/14 08:34:55;;;;;;;20.30;7.90;;;;;;;;;;5034130;28;20041;-54
2021/04/14 08:37:22;;;;;;;21.55;8.98;;;;;;;;;;5040961;28;20021;-56
2021/04/14 08:39:50;;;;;;;17.30;6.93;;;;;;;;;;5041404;28;20045;-56
2021/04/14 08:42:27;;;;;;;18.77;7.13;;;;;;;;;;5036994;28;20468;-52
2021/04/14 08:44:54;;;;;;;14.60;5.60;;;;;;;;;;5041158;28;20049;-56
2021/04/14 08:47:25;;;;;;;10.70;5.18;;;;;;;;;;5019282;28;20034;-57
2021/04/14 08:49:57;;;;;;;13.65;4.50;;;;;;;;;;5022945;28;20038;-55
2021/04/14 08:52:23;;;;;;;23.20;5.60;;;;;;;;;;5033644;28;20037;-57
2021/04/14 08:54:49;;;;;;;27.17;5.60;;;;;;;;;;5040743;28;20464;-54
2021/04/14 08:57:18;;;;;;;34.72;5.63;;;;;;;;;;5024970;28;20038;-55
2021/04/14 08:59:45;;;;;;;29.98;4.90;;;;;;;;;;5020080;28;20056;-56
2021/04/14 09:02:12;;;;;;;41.03;4.85;;;;;;;;;;5027892;28;20069;-55
2021/04/14 09:04:42;;;;;;;19.92;3.90;;;;;;;;;;5039495;28;20064;-54
2021/04/14 09:07:08;;;;;;;8.85;3.05;;;;;;;;;;5028571;28;20046;-57
2021/04/14 09:09:43;;;;;;;24.25;4.10;;;;;;;;;;5022579;28;20042;-57
2021/04/14 09:12:09;;;;;;;20.38;4.38;;;;;;;;;;5025616;28;20033;-58
2021/04/14 09:14:37;;;;;;;17.58;3.70;;;;;;;;;;5041245;28;20037;-56
2021/04/14 09:17:05;;;;;;;22.00;4.40;;;;;;;;;;5036018;28;20175;-56
2021/04/14 09:19:33;;;;;;;14.93;4.20;;;;;;;;;;5040317;28;20074;-57
2021/04/14 09:22:01;;;;;;;16.27;3.50;;;;;;;;;;5036680;28;20127;-53
2021/04/14 09:24:32;;;;;;;16.97;3.60;;;;;;;;;;5040794;28;20038;-51
2021/04/14 09:26:59;;;;;;;21.83;4.22;;;;;;;;;;5036549;28;20278;-53
2021/04/14 09:29:26;;;;;;;11.07;4.57;;;;;;;;;;5027879;28;20073;-54
2021/04/14 09:31:55;;;;;;;15.88;4.53;;;;;;;;;;5039569;28;20056;-58
2021/04/14 09:34:31;;;;;;;19.08;5.38;;;;;;;;;;5023355;28;20042;-51
2021/04/14 09:37:01;;;;;;;14.07;4.20;;;;;;;;;;5022533;28;20045;-55
2021/04/14 09:39:29;;;;;;;12.35;5.00;;;;;;;;;;5016940;28;20042;-50
2021/04/14 09:41:55;;;;;;;12.77;4.67;;;;;;;;;;5019847;28;20040;-57
2021/04/14 09:44:33;;;;;;;10.10;4.53;;;;;;;;;;5031740;28;20060;-54
2021/04/14 09:47:10;;;;;;;12.50;4.97;;;;;;;;;;5020873;28;20038;-57
2021/04/14 09:49:38;;;;;;;12.38;4.70;;;;;;;;;;5017773;28;20034;-58
2021/04/14 09:52:07;;;;;;;15.25;5.68;;;;;;;;;;5038163;28;20122;-57
2021/04/14 09:54:37;;;;;;;15.00;5.90;;;;;;;;;;5036227;28;20097;-52
2021/04/14 09:57:05;;;;;;;29.77;6.70;;;;;;;;;;5038291;28;20033;-53
2021/04/14 09:59:35;;;;;;;19.83;6.20;;;;;;;;;;5023169;28;20045;-59
2021/04/14 10:02:03;;;;;;;18.17;6.40;;;;;;;;;;5019333;28;20045;-57
2021/04/14 10:04:29;;;;;;;23.33;7.25;;;;;;;;;;5018840;28;20050;-52
2021/04/14 10:06:56;;;;;;;19.23;6.93;;;;;;;;;;5021954;28;20037;-53
2021/04/14 10:09:24;;;;;;;16.35;6.72;;;;;;;;;;5022839;28;20068;-54
2021/04/14 10:11:50;;;;;;;17.33;6.70;;;;;;;;;;5038726;28;20088;-54
2021/04/14 10:14:18;;;;;;;13.73;6.97;;;;;;;;;;5031156;28;20038;-54
2021/04/14 10:16:45;;;;;;;18.70;6.60;;;;;;;;;;5021760;28;20057;-55
2021/04/14 10:19:13;;;;;;;19.95;8.00;;;;;;;;;;5019453;28;20307;-58
2021/04/14 10:21:41;;;;;;;21.08;6.88;;;;;;;;;;5037793;28;20049;-57
2021/04/14 10:24:08;;;;;;;15.88;6.63;;;;;;;;;;5037149;28;20046;-60
2021/04/14 10:26:36;;;;;;;15.82;7.40;;;;;;;;;;5021101;28;20050;-56
2021/04/14 10:29:06;;;;;;;17.45;7.75;;;;;;;;;;5020368;28;20048;-53
2021/04/14 10:31:34;;;;;;;18.35;7.05;;;;;;;;;;5006067;28;20052;-53
2021/04/14 10:34:05;;;;;;;15.63;7.22;;;;;;;;;;5028903;28;20126;-52
2021/04/14 10:36:35;;;;;;;15.85;6.95;;;;;;;;;;5019669;28;20038;-56
2021/04/14 10:39:09;;;;;;;16.13;6.70;;;;;;;;;;5020229;28;20100;-53
2021/04/14 10:41:35;;;;;;;16.60;7.72;;;;;;;;;;5034134;28;20037;-55
2021/04/14 10:44:14;;;;;;;16.58;7.53;;;;;;;;;;5043240;28;20056;-57
2021/04/14 10:46:43;;;;;;;14.43;6.88;;;;;;;;;;5023346;28;20042;-56
2021/04/14 10:49:11;;;;;;;16.35;6.85;;;;;;;;;;5032825;28;20048;-54
2021/04/14 10:51:39;;;;;;;15.13;7.05;;;;;;;;;;5038714;28;20053;-49
2021/04/14 10:54:07;;;;;;;19.42;7.57;;;;;;;;;;5041846;28;20048;-54
2021/04/14 10:56:34;;;;;;;21.53;7.00;;;;;;;;;;5028402;28;20056;-53
2021/04/14 10:59:04;;;;;;;16.10;6.63;;;;;;;;;;5023937;28;20049;-56
2021/04/14 11:01:34;;;;;;;15.52;5.90;;;;;;;;;;5025914;28;20053;-55
2021/04/14 11:04:06;;;;;;;14.25;6.15;;;;;;;;;;5043320;28;20118;-57
2021/04/14 11:06:33;;;;;;;9.77;4.00;;;;;;;;;;5031186;28;20030;-56
2021/04/14 11:09:00;;;;;;;12.32;4.60;;;;;;;;;;5022254;28;20126;-57
2021/04/14 11:11:26;;;;;;;9.75;4.15;;;;;;;;;;5019561;28;20042;-58
2021/04/14 11:13:53;;;;;;;8.93;3.28;;;;;;;;;;5020523;28;20038;-56
2021/04/14 11:16:19;;;;;;;10.48;4.60;;;;;;;;;;5019616;28;20041;-54
2021/04/14 11:18:45;;;;;;;11.15;4.60;;;;;;;;;;5023313;28;20056;-51
2021/04/14 11:21:26;;;;;;;13.05;6.22;;;;;;;;;;5023487;28;20054;-52
2021/04/14 11:24:01;;;;;;;17.48;5.53;;;;;;;;;;5037358;28;20074;-57
2021/04/14 11:26:27;;;;;;;13.70;5.28;;;;;;;;;;5020384;28;20045;-60
2021/04/14 11:28:56;;;;;;;12.90;5.75;;;;;;;;;;5053469;28;20040;-56
2021/04/14 11:31:28;;;;;;;12.70;5.57;;;;;;;;;;5044166;28;20041;-54
2021/04/14 11:33:54;;;;;;;14.85;5.28;;;;;;;;;;5026249;28;20038;-53
2021/04/14 11:36:28;;;;;;;13.93;5.45;;;;;;;;;;5022787;28;20044;-53
2021/04/14 11:38:59;;;;;;;14.52;4.30;;;;;;;;;;5047579;28;20038;-59
2021/04/14 11:41:31;;;;;;;11.90;4.22;;;;;;;;;;5021605;28;20053;-57
2021/04/14 11:43:59;;;;;;;11.50;4.25;;;;;;;;;;5018389;28;20188;-57
2021/04/14 11:46:25;;;;;;;;;;;;;;;;;;5022727;28;20127;-58
2021/04/14 11:48:54;;;;;;;16.33;4.25;;;;;;;;;;5036329;28;19944;-55
2021/04/14 11:51:27;;;;;;;10.68;3.78;;;;;;;;;;5042202;28;20126;-51
2021/04/14 11:53:55;;;;;;;10.88;3.58;;;;;;;;;;5030192;28;20041;-57
2021/04/14 11:56:23;;;;;;;11.83;4.60;;;;;;;;;;5023619;28;20042;-52
2021/04/14 11:58:49;;;;;;;12.20;5.43;;;;;;;;;;5018702;28;20069;-57
2021/04/14 12:01:21;;;;;;;12.68;5.30;;;;;;;;;;5024070;28;20053;-55
2021/04/14 12:03:47;;;;;;;15.05;5.07;;;;;;;;;;5017847;28;20495;-58
2021/04/14 12:06:13;;;;;;;11.23;4.90;;;;;;;;;;5021499;28;20041;-53
2021/04/14 12:08:39;;;;;;;18.17;5.30;;;;;;;;;;5022563;28;20040;-53
2021/04/14 12:11:14;;;;;;;12.00;3.95;;;;;;;;;;5041078;28;20045;-58
2021/04/14 12:13:40;;;;;;;12.23;5.22;;;;;;;;;;5037364;28;20061;-56
2021/04/14 12:16:06;;;;;;;10.38;4.72;;;;;;;;;;5040963;28;20052;-52
2021/04/14 12:18:33;;;;;;;11.52;4.75;;;;;;;;;;5040344;28;20050;-57
2021/04/14 12:20:59;;;;;;;10.10;4.63;;;;;;;;;;5020234;28;20046;-56
2021/04/14 12:23:25;;;;;;;12.40;5.43;;;;;;;;;;5022010;28;20038;-56
2021/04/14 12:25:51;;;;;;;15.00;4.95;;;;;;;;;;5019191;28;20049;-50
2021/04/14 12:28:17;;;;;;;10.75;4.40;;;;;;;;;;5022050;28;20033;-57
2021/04/14 12:30:43;;;;;;;10.07;4.28;;;;;;;;;;5031499;28;20041;-55
2021/04/14 12:33:10;;;;;;;11.07;3.97;;;;;;;;;;5038683;28;20172;-53
2021/04/14 12:35:37;;;;;;;12.40;5.13;;;;;;;;;;5017970;28;20107;-55
2021/04/14 12:38:04;;;;;;;12.13;4.32;;;;;;;;;;5021581;28;20043;-53
2021/04/14 12:40:31;;;;;;;12.82;5.57;;;;;;;;;;5018451;28;20038;-58
2021/04/14 12:42:57;;;;;;;12.20;5.00;;;;;;;;;;5019975;28;20034;-53
2021/04/14 12:45:32;;;;;;;11.13;4.00;;;;;;;;;;5018831;28;20081;-52
2021/04/14 12:47:58;;;;;;;8.45;3.75;;;;;;;;;;5021516;28;20066;-57
2021/04/14 12:50:26;;;;;;;9.48;4.18;;;;;;;;;;5022526;28;20037;-55
2021/04/14 12:52:55;;;;;;;21.05;3.75;;;;;;;;;;5042215;28;20048;-57
2021/04/14 12:55:22;;;;;;;8.38;3.17;;;;;;;;;;5037405;28;20409;-57
2021/04/14 12:57:48;;;;;;;23.80;3.47;;;;;;;;;;5041851;28;20080;-54
2021/04/14 13:00:16;;;;;;;11.13;3.05;;;;;;;;;;5036111;28;20064;-58
2021/04/14 13:02:43;;;;;;;25.75;2.47;;;;;;;;;;5021041;28;20054;-57
2021/04/14 13:05:12;;;;;;;7.50;1.98;;;;;;;;;;5020950;28;20041;-58
2021/04/14 13:07:41;;;;;;;16.40;1.80;;;;;;;;;;5019735;28;20042;-59
2021/04/14 13:10:09;;;;;;;7.95;1.30;;;;;;;;;;5022282;28;20022;-58
2021/04/14 13:12:37;;;;;;;22.10;1.35;;;;;;;;;;5016604;28;20045;-56
2021/04/14 13:15:04;;;;;;;3.80;0.83;;;;;;;;;;5022250;28;20044;-53
2021/04/14 13:17:31;;;;;;;1.90;0.70;;;;;;;;;;5017429;28;20295;-57
2021/04/14 13:19:57;;;;;;;2.97;0.85;;;;;;;;;;5021131;28;20030;-57
2021/04/14 13:22:28;;;;;;;4.88;0.90;;;;;;;;;;5030091;28;20056;-57
2021/04/14 13:24:59;;;;;;;1.65;0.60;;;;;;;;;;5027398;28;20138;-55
2021/04/14 13:27:30;;;;;;;1.00;0.70;;;;;;;;;;5025025;28;20025;-53
2021/04/14 13:30:00;;;;;;;2.78;0.70;;;;;;;;;;5020548;28;20048;-59
2021/04/14 13:32:30;;;;;;;13.02;0.98;;;;;;;;;;5016867;28;20046;-55
2021/04/14 13:34:59;;;;;;;2.40;0.68;;;;;;;;;;5034442;28;20026;-57
2021/04/14 13:37:25;;;;;;;1.65;0.70;;;;;;;;;;5016933;28;20042;-57
2021/04/14 13:39:55;;;;;;;3.78;0.95;;;;;;;;;;5019951;28;20030;-57
2021/04/14 13:42:24;;;;;;;2.17;0.50;;;;;;;;;;5016151;28;20057;-60
2021/04/14 13:44:50;;;;;;;;;;;;;;;;;;5022347;28;20038;-60
2021/04/14 13:47:20;;;;;;;3.80;0.90;;;;;;;;;;5016237;28;19921;-53
2021/04/14 13:49:48;;;;;;;1.85;0.68;;;;;;;;;;5021924;28;20053;-54
2021/04/14 13:52:15;;;;;;;1.10;0.63;;;;;;;;;;5018323;28;20042;-52
2021/04/14 13:54:41;;;;;;;13.10;0.82;;;;;;;;;;5039431;28;20058;-60
2021/04/14 13:57:13;;;;;;;4.50;0.70;;;;;;;;;;5040718;28;20056;-56
2021/04/14 13:59:43;;;;;;;1.27;0.85;;;;;;;;;;5017216;28;20054;-56
2021/04/14 14:02:14;;;;;;;5.45;0.82;;;;;;;;;;5019730;28;20057;-54
2021/04/14 14:04:42;;;;;;;9.00;1.00;;;;;;;;;;5016274;28;20050;-57
2021/04/14 14:07:10;;;;;;;5.10;0.70;;;;;;;;;;5022352;28;20034;-54
2021/04/14 14:09:39;;;;;;;14.48;0.70;;;;;;;;;;5016380;28;20041;-50
2021/04/14 14:12:09;;;;;;;4.22;0.77;;;;;;;;;;5020403;28;20034;-52
2021/04/14 14:14:36;;;;;;;5.03;0.85;;;;;;;;;;5032404;28;20041;-55
2021/04/14 14:17:03;;;;;;;4.00;0.73;;;;;;;;;;5042355;28;20037;-55
2021/04/14 14:19:33;;;;;;;11.20;0.82;;;;;;;;;;5031556;28;20045;-60
2021/04/14 14:22:01;;;;;;;1.67;0.63;;;;;;;;;;5021645;28;20041;-57
2021/04/14 14:24:27;;;;;;;24.20;1.33;;;;;;;;;;5020054;28;20201;-58
2021/04/14 14:26:53;;;;;;;13.10;0.95;;;;;;;;;;5023277;28;20061;-59
2021/04/14 14:29:21;;;;;;;3.45;0.77;;;;;;;;;;5018879;28;20034;-56
2021/04/14 14:31:47;;;;;;;5.53;0.98;;;;;;;;;;5021472;28;20160;-60
2021/04/14 14:34:14;;;;;;;8.13;1.02;;;;;;;;;;5028775;28;20045;-55
2021/04/14 14:36:42;;;;;;;1.52;0.70;;;;;;;;;;5023418;28;20116;-57
2021/04/14 14:39:17;;;;;;;2.88;0.70;;;;;;;;;;5020285;28;20111;-57